Weather observations for the past three days for
Fort Bragg / Simmons Army Airfield
| Date | Time (edt) | Wind (mph) | Vis. (mi.) | Weather | Sky Cond. | Temperature (ºF) | Relative Humidity | Wind Chill (°F) | Heat Index (°F) | Pressure | Precipitation (in) | ||||||
|---|---|---|---|---|---|---|---|---|---|---|---|---|---|---|---|---|---|
| Air | Dwpt | 6 hour | altimeter (in) | sea level (mb) | 1 hr | 3 hr | 6 hr | ||||||||||
| Max. | Min. | ||||||||||||||||
| 02 | 13:55 | Calm | 10.00 | Fair | CLR | 95.9 | 73.6 | 96.6 | 78.6 | 49% | 106 | 30.03 | 1016.9 | ||||
| 02 | 12:55 | Calm | 10.00 | Fair | CLR | 95.5 | 73.2 | 49% | 105 | 30.04 | 1017.2 | ||||||
| 02 | 11:55 | Calm | 10.00 | Fair | CLR | 93.4 | 75.2 | 56% | 105 | 30.05 | 1017.6 | ||||||
| 02 | 10:55 | Calm | 10.00 | Fair | CLR | 91.4 | 75.4 | 60% | 103 | 30.05 | 1017.6 | ||||||
| 02 | 09:55 | Calm | 10.00 | Fair | CLR | 86.7 | 74.8 | 68% | 96 | 30.04 | 1017.2 | ||||||
| 02 | 08:55 | NW 5 | 10.00 | Fair | CLR | 83.1 | 74.7 | 76% | 90 | 30.04 | 1017.2 | ||||||
| 02 | 07:55 | W 5 | 10.00 | Fair | CLR | 78.4 | 74.1 | 81.1 | 77.2 | 87% | 81 | 30.05 | 1017.6 | ||||
| 02 | 06:55 | W 3 | 10.00 | Fair | CLR | 77.9 | 73.9 | 88% | 80 | 30.04 | 1017.2 | ||||||
| 02 | 05:55 | SW 5 | 10.00 | Fair | CLR | 78.3 | 73.9 | 87% | 81 | 30.04 | 1017.2 | ||||||
| 02 | 04:55 | SW 6 | 10.00 | Fair | CLR | 78.3 | 73.6 | 86% | 81 | 30.03 | 1016.9 | ||||||
| 02 | 03:55 | SW 5 | 10.00 | Fair | CLR | 79.9 | 73.4 | 81% | 84 | 30.03 | 1016.9 | ||||||
| 02 | 02:55 | SW 5 | 10.00 | Fair | CLR | 80.4 | 73.9 | 81% | 85 | 30.04 | 1017.2 | ||||||
| 02 | 01:55 | SW 6 | 10.00 | Fair | CLR | 81 | 74.1 | 88.7 | 81 | 80% | 86 | 30.04 | 1017.2 | ||||
| 02 | 00:55 | SW 5 | 10.00 | Fair | CLR | 82 | 74.8 | 79% | 89 | 30.03 | 1016.9 | ||||||
| 01 | 23:55 | S 7 | 10.00 | Fair | CLR | 83.1 | 75.4 | 78% | 91 | 30.02 | 1016.6 | ||||||
| 01 | 22:55 | S 6 | 10.00 | Fair | CLR | 85.5 | 74.8 | 71% | 94 | 30.01 | 1016.2 | ||||||
| 01 | 20:55 | S 3 | 10.00 | Fair | CLR | 88 | 73.8 | 63% | 96 | 29.99 | 1015.5 | ||||||
| 01 | 19:55 | Calm | 10.00 | Fair | CLR | 88.9 | 75.9 | 96.1 | 88.9 | 66% | 100 | 29.99 | 1015.6 | ||||
| 01 | 18:55 | Calm | 10.00 | Fair | CLR | 91.8 | 75.4 | 59% | 103 | 30 | 1015.9 | ||||||
| 01 | 17:55 | S 3 | 10.00 | Mostly Cloudy | SCT075 BKN090 | 92.5 | 71.6 | 51% | 100 | 30 | 1015.9 | ||||||
| 01 | 16:55 | Calm | 10.00 | Mostly Cloudy | BKN090 | 95.5 | 68 | 41% | 100 | 29.99 | 1015.5 | ||||||
| 01 | 15:55 | E 5 | 10.00 | Mostly Cloudy | BKN075 | 95.5 | 69.4 | 43% | 102 | 30 | 1015.9 | ||||||
| 01 | 14:55 | Calm | 10.00 | Overcast | OVC060 | 94.6 | 70 | 45% | 101 | 30.02 | 1016.6 | ||||||
| 01 | 13:55 | Calm | 10.00 | Partly Cloudy | SCT050 | 94.1 | 72.5 | 94.5 | 78.8 | 50% | 103 | 30.03 | 1016.9 | ||||
| 01 | 12:55 | Calm | 10.00 | Fair | CLR | 93.6 | 70.9 | 48% | 101 | 30.05 | 1017.6 | ||||||
| 01 | 11:55 | Calm | 10.00 | Fair | CLR | 91.4 | 73.4 | 56% | 100 | 30.07 | 1018.3 | ||||||
| 01 | 10:55 | NW 3 | 10.00 | Fair | CLR | 90.3 | 72.9 | 57% | 99 | 30.08 | 1018.6 | ||||||
| 01 | 09:55 | NW 7 | 10.00 | Fair | CLR | 86.7 | 74.3 | 67% | 95 | 30.07 | 1018.3 | ||||||
| 01 | 08:55 | NW 6 | 10.00 | Fair | CLR | 83.5 | 75.4 | 77% | 91 | 30.07 | 1018.3 | ||||||
| 01 | 07:55 | W 3 | 10.00 | Fair | CLR | 78.6 | 75.4 | 79 | 76.1 | 90% | 82 | 30.06 | 1018.0 | ||||
| 01 | 06:55 | W 3 | 10.00 | Fair | CLR | 76.3 | 74.3 | 94% | 76 | 30.05 | 1017.6 | ||||||
| 01 | 05:55 | SW 3 | 10.00 | Fair | CLR | 76.6 | 74.1 | 92% | 77 | 30.05 | 1017.6 | ||||||
| 01 | 04:55 | SW 3 | 10.00 | Fair | CLR | 77.2 | 74.3 | 91% | 79 | 30.06 | 1017.9 | ||||||
| 01 | 03:55 | Calm | 10.00 | Fair | CLR | 77 | 74.5 | 92% | 78 | 30.06 | 1017.9 | ||||||
| 01 | 02:55 | SW 5 | 10.00 | Fair | CLR | 78.4 | 74.8 | 89% | 82 | 30.06 | 1017.9 | ||||||
| 01 | 00:55 | S 3 | 10.00 | Fair | CLR | 79.9 | 74.8 | 85% | 85 | 30.07 | 1018.3 | ||||||
| 31 | 23:55 | SW 3 | 10.00 | Fair | CLR | 80.8 | 74.7 | 82% | 86 | 30.07 | 1018.3 | ||||||
| 31 | 22:55 | S 3 | 10.00 | Fair | CLR | 81.3 | 72.1 | 74% | 86 | 30.07 | 1018.3 | ||||||
| 31 | 21:55 | Calm | 10.00 | Fair | CLR | 79.7 | 74.3 | 84% | 84 | 30.06 | 1018.0 | ||||||
| 31 | 20:55 | Calm | 10.00 | Fair | CLR | 81.5 | 75 | 81% | 88 | 30.04 | 1017.3 | ||||||
| 31 | 18:55 | E 5 | 10.00 | Fair | CLR | 89.6 | 71.2 | 55% | 96 | 30.03 | 1016.9 | ||||||
| 31 | 17:55 | E 5 | 10.00 | Fair | CLR | 90.5 | 70.3 | 52% | 96 | 30.04 | 1017.3 | ||||||
| 31 | 16:55 | Calm | 10.00 | A Few Clouds | FEW060 | 92.8 | 70.7 | 49% | 99 | 30.04 | 1017.3 | ||||||
| 31 | 15:55 | NE 3 | 10.00 | Partly Cloudy | SCT055 | 91.2 | 70 | 50% | 97 | 30.05 | 1017.6 | ||||||
| 31 | 14:55 | Calm | 10.00 | Fair | CLR | 93.7 | 70.3 | 47% | 100 | 30.07 | 1018.3 | ||||||
| 31 | 13:55 | Calm | 10.00 | Fair | CLR | 90.9 | 70.7 | 91.6 | 73.9 | 52% | 97 | 30.09 | 1019.0 | ||||
| 31 | 12:55 | Calm | 10.00 | Fair | CLR | 89.8 | 71.4 | 55% | 96 | 30.1 | 1019.3 | ||||||
| 31 | 11:55 | W 3 | 10.00 | Fair | CLR | 88.2 | 72.5 | 60% | 95 | 30.11 | 1019.6 | ||||||
| 31 | 10:55 | NW 3 | 10.00 | Fair | CLR | 85.8 | 71.6 | 63% | 92 | 30.11 | 1019.7 | ||||||
| 31 | 09:55 | NW 5 | 10.00 | Fair | CLR | 83.5 | 73.8 | 73% | 90 | 30.1 | 1019.3 | ||||||
| 31 | 08:55 | NW 3 | 10.00 | Fair | CLR | 79 | 74.3 | 86% | 83 | 30.1 | 1019.3 | ||||||
| 31 | 07:55 | Calm | 8.00 | Fair | CLR | 73.8 | 72.1 | 75.4 | 70.9 | 95% | 30.1 | 1019.3 | |||||
| 31 | 06:55 | Calm | 10.00 | Fair | CLR | 71.4 | 70.2 | 96% | 30.1 | 1019.3 | |||||||
| 31 | 05:55 | Calm | 10.00 | Fair | CLR | 71.6 | 70 | 95% | 30.09 | 1019.0 | |||||||
| 31 | 04:55 | Calm | 10.00 | Fair | CLR | 72.9 | 71.6 | 96% | 30.09 | 1019.0 | |||||||
| 31 | 03:55 | Calm | 10.00 | Fair | CLR | 73 | 71.4 | 95% | 30.09 | 1019.0 | |||||||
| 31 | 02:55 | Calm | 10.00 | Fair | CLR | 74.7 | 72.7 | 94% | 30.09 | 1019.0 | |||||||
| 31 | 01:55 | Calm | 10.00 | Fair | CLR | 75 | 73 | 81.1 | 75 | 94% | 73 | 30.1 | 1019.3 | ||||
| 31 | 00:55 | Calm | 10.00 | Fair | CLR | 75.6 | 73.9 | 95% | 74 | 30.11 | 1019.7 | ||||||
| 30 | 23:55 | Calm | 10.00 | Fair | CLR | 75.4 | 73.4 | 94% | 74 | 30.11 | 1019.7 | ||||||
| 30 | 22:55 | Calm | 10.00 | Fair | CLR | 76.5 | 74.3 | 93% | 77 | 30.11 | 1019.7 | ||||||
| 30 | 21:55 | Calm | 10.00 | Fair | CLR | 77.9 | 73.9 | 88% | 80 | 30.1 | 1019.3 | ||||||
| 30 | 20:55 | Calm | 10.00 | Fair | CLR | 79.2 | 75.6 | 89% | 83 | 30.1 | 1019.3 | ||||||
| 30 | 19:55 | Calm | 10.00 | Fair | CLR | 81 | 73.8 | 87.1 | 80.8 | 79% | 86 | 30.09 | 1019.0 | ||||
| 30 | 18:55 | E 5 | 10.00 | Fair | CLR | 83.5 | 73.4 | 72% | 90 | 30.1 | 1019.3 | ||||||
| 30 | 17:55 | E 5 | 10.00 | Fair | CLR | 84.4 | 72.5 | 68% | 90 | 30.1 | 1019.3 | ||||||
| 30 | 16:55 | E 5 | 10.00 | A Few Clouds | FEW170 | 86.2 | 73.4 | 66% | 94 | 30.09 | 1019.0 | ||||||
| 30 | 15:55 | N 5 | 10.00 | Mostly Cloudy | BKN035 | 86 | 71.4 | 62% | 92 | 30.11 | 1019.7 | ||||||
| Date | Time (edt) | Wind (mph) | Vis. (mi.) | Weather | Sky Cond. | Air | Dwpt | Max. | Min. | Relative Humidity | Wind Chill (°F) | Heat Index (°F) | altimeter (in) | sea level (mb) | 1 hr | 3 hr | 6 hr |
| 6 hour | |||||||||||||||||
| Temperature (ºF) | Pressure | Precipitation (in) | |||||||||||||||